Time;durP1;ratioP1;P1;durP2;ratioP2;P2;SDS_P1;SDS_P2;PMS_P1;PMS_P2;Temp;Humidity;BMP_temperature;BMP_pressure;BME280_temperature;BME280_humidity;BME280_pressure;Samples;Min_cycle;Max_cycle;Signal;HPM_P1;HPM_P2
2023/07/12 00:01:35;;;;;;;4.65;1.70;;;;;;;;;;6042787;23;20337;-81
2023/07/12 00:04:00;;;;;;;3.30;1.98;;;;;;;;;;6045154;23;20006;-81
2023/07/12 00:06:36;;;;;;;3.30;1.80;;;;;;;;;;6069490;23;20082;-81
2023/07/12 00:09:02;;;;;;;5.07;2.00;;;;;;;;;;6069840;23;20293;-81
2023/07/12 00:11:27;;;;;;;5.15;1.90;;;;;;;;;;6042130;23;20005;-81
2023/07/12 00:13:54;;;;;;;4.38;2.00;;;;;;;;;;6041825;23;20007;-81
2023/07/12 00:16:26;;;;;;;4.40;1.75;;;;;;;;;;6041927;23;20074;-82
2023/07/12 00:18:52;;;;;;;3.92;1.88;;;;;;;;;;6042329;23;20419;-84
2023/07/12 00:21:22;;;;;;;2.70;1.23;;;;;;;;;;6068348;23;20006;-84
2023/07/12 00:23:48;;;;;;;2.15;1.23;;;;;;;;;;6068742;23;20429;-85
2023/07/12 00:26:22;;;;;;;2.70;1.40;;;;;;;;;;6066851;23;20424;-84
2023/07/12 00:28:47;;;;;;;8.35;1.00;;;;;;;;;;6043317;23;20034;-84
2023/07/12 00:31:13;;;;;;;2.67;1.10;;;;;;;;;;6042992;23;20003;-84
2023/07/12 00:33:38;;;;;;;5.30;1.23;;;;;;;;;;6042258;23;20050;-85
2023/07/12 00:36:04;;;;;;;3.78;1.23;;;;;;;;;;6043038;23;20018;-83
2023/07/12 00:38:30;;;;;;;3.47;1.38;;;;;;;;;;6042927;23;20058;-85
2023/07/12 00:41:04;;;;;;;5.57;1.20;;;;;;;;;;6043855;23;20090;-84
2023/07/12 00:43:33;;;;;;;8.15;1.30;;;;;;;;;;6065215;23;20003;-83
2023/07/12 00:46:00;;;;;;;9.82;1.60;;;;;;;;;;6065151;23;20021;-84
2023/07/12 00:48:26;;;;;;;2.03;1.17;;;;;;;;;;6065085;23;20383;-85
2023/07/12 00:50:51;;;;;;;3.13;1.33;;;;;;;;;;6064995;23;20010;-85
2023/07/12 00:53:23;;;;;;;6.05;1.38;;;;;;;;;;6065904;23;19995;-84
2023/07/12 00:56:01;;;;;;;3.28;1.00;;;;;;;;;;6066824;23;20507;-85
2023/07/12 00:58:29;;;;;;;1.75;0.93;;;;;;;;;;6066829;23;20499;-85
2023/07/12 01:00:56;;;;;;;1.90;1.15;;;;;;;;;;6067131;23;20399;-85
2023/07/12 01:03:22;;;;;;;1.58;0.88;;;;;;;;;;6068975;23;20141;-85
2023/07/12 01:05:48;;;;;;;2.28;1.00;;;;;;;;;;6090240;23;20002;-85
2023/07/12 01:08:14;;;;;;;4.72;1.10;;;;;;;;;;6066858;23;20031;-84
2023/07/12 01:10:39;;;;;;;2.88;1.00;;;;;;;;;;6067270;23;20003;-85
2023/07/12 01:13:09;;;;;;;7.22;1.20;;;;;;;;;;6090695;23;20017;-85
2023/07/12 01:15:40;;;;;;;2.75;1.20;;;;;;;;;;6067045;23;20158;-84
2023/07/12 01:18:06;;;;;;;2.85;1.00;;;;;;;;;;6067173;23;20031;-85
2023/07/12 01:20:36;;;;;;;3.88;1.20;;;;;;;;;;6067555;23;19999;-85
2023/07/12 01:23:02;;;;;;;3.42;0.93;;;;;;;;;;6069816;23;20007;-85
2023/07/12 01:25:33;;;;;;;4.07;1.42;;;;;;;;;;6068901;23;20070;-85
2023/07/12 01:27:59;;;;;;;2.50;1.00;;;;;;;;;;6068845;23;20007;-85
2023/07/12 01:30:27;;;;;;;3.30;1.10;;;;;;;;;;6068153;23;20381;-84
2023/07/12 01:32:53;;;;;;;2.40;0.90;;;;;;;;;;6067663;23;20026;-85
2023/07/12 01:35:18;;;;;;;4.57;1.10;;;;;;;;;;6067324;23;20400;-85
2023/07/12 01:37:44;;;;;;;0.85;0.60;;;;;;;;;;6068288;23;20089;-85
2023/07/12 01:40:09;;;;;;;1.92;0.70;;;;;;;;;;6067329;23;20014;-86
2023/07/12 01:42:34;;;;;;;1.42;0.65;;;;;;;;;;6064927;23;20515;-85
2023/07/12 01:45:00;;;;;;;2.45;0.70;;;;;;;;;;6088848;23;20009;-85
2023/07/12 01:47:25;;;;;;;1.02;0.52;;;;;;;;;;6088902;23;20003;-85
2023/07/12 01:49:50;;;;;;;3.90;0.82;;;;;;;;;;6089054;23;20057;-85
2023/07/12 01:52:15;;;;;;;3.92;0.80;;;;;;;;;;6064740;23;20033;-85
2023/07/12 01:54:43;;;;;;;4.80;0.93;;;;;;;;;;6066140;23;20702;-85
2023/07/12 01:57:08;;;;;;;2.78;0.93;;;;;;;;;;6090032;23;20317;-86
2023/07/12 01:59:34;;;;;;;4.05;0.95;;;;;;;;;;6066321;23;20021;-85
2023/07/12 02:01:59;;;;;;;2.70;0.75;;;;;;;;;;6066040;23;20450;-85
2023/07/12 02:04:25;;;;;;;2.50;0.80;;;;;;;;;;6066218;23;20007;-85
2023/07/12 02:06:50;;;;;;;5.03;0.85;;;;;;;;;;6067780;23;20055;-84
2023/07/12 02:09:16;;;;;;;5.40;1.02;;;;;;;;;;6068256;23;19995;-86
2023/07/12 02:11:41;;;;;;;3.25;1.10;;;;;;;;;;6065803;23;20062;-85
2023/07/12 02:14:06;;;;;;;3.53;1.00;;;;;;;;;;6066325;23;20006;-85
2023/07/12 02:16:33;;;;;;;3.65;1.08;;;;;;;;;;6068214;23;20166;-85
2023/07/12 02:18:59;;;;;;;4.00;0.98;;;;;;;;;;6066336;23;20003;-85
2023/07/12 02:21:24;;;;;;;2.20;1.02;;;;;;;;;;6066142;23;20006;-86
2023/07/12 02:23:54;;;;;;;6.20;0.98;;;;;;;;;;6066062;23;20360;-85
2023/07/12 02:26:20;;;;;;;2.05;0.82;;;;;;;;;;6066586;23;20006;-86
2023/07/12 02:28:47;;;;;;;5.95;1.10;;;;;;;;;;6066651;23;20003;-85
2023/07/12 02:31:13;;;;;;;6.53;0.90;;;;;;;;;;6067273;23;20010;-85
2023/07/12 02:33:38;;;;;;;3.20;1.10;;;;;;;;;;6066427;23;20323;-85
2023/07/12 02:36:04;;;;;;;3.15;0.85;;;;;;;;;;6090058;23;20010;-85
2023/07/12 02:38:29;;;;;;;1.88;1.02;;;;;;;;;;6066455;23;20327;-85
2023/07/12 02:40:54;;;;;;;2.22;0.95;;;;;;;;;;6067106;23;20091;-85
2023/07/12 02:43:23;;;;;;;1.58;0.90;;;;;;;;;;6068413;23;20074;-85
2023/07/12 02:45:48;;;;;;;2.85;0.98;;;;;;;;;;6068324;23;20523;-85
2023/07/12 02:48:13;;;;;;;5.30;1.10;;;;;;;;;;6068083;23;19998;-86
2023/07/12 02:50:41;;;;;;;2.25;1.10;;;;;;;;;;6067441;23;20339;-86
2023/07/12 02:53:13;;;;;;;3.78;1.00;;;;;;;;;;6068370;23;20403;-85
2023/07/12 02:55:38;;;;;;;;;;;;;;;;;;6093096;23;20419;-85
2023/07/12 02:58:04;;;;;;;4.60;1.20;;;;;;;;;;6069513;23;19913;-85
2023/07/12 03:00:29;;;;;;;3.22;1.30;;;;;;;;;;6069172;23;20009;-85
2023/07/12 03:02:55;;;;;;;2.17;0.98;;;;;;;;;;6091704;23;20042;-85
2023/07/12 03:05:22;;;;;;;7.30;1.20;;;;;;;;;;6090869;23;19999;-85
2023/07/12 03:07:47;;;;;;;2.72;0.93;;;;;;;;;;6091670;23;20074;-85
2023/07/12 03:10:12;;;;;;;3.70;1.40;;;;;;;;;;6067968;23;20029;-85
2023/07/12 03:12:38;;;;;;;2.35;1.15;;;;;;;;;;6065579;23;20011;-85
2023/07/12 03:15:03;;;;;;;5.13;1.20;;;;;;;;;;6065586;23;20030;-85
2023/07/12 03:17:28;;;;;;;3.58;1.42;;;;;;;;;;6067585;23;19999;-84
2023/07/12 03:19:54;;;;;;;3.75;1.30;;;;;;;;;;6089420;23;20356;-84
2023/07/12 03:22:19;;;;;;;2.67;0.57;;;;;;;;;;6065608;23;20710;-85
2023/07/12 03:24:44;;;;;;;3.70;1.13;;;;;;;;;;6065916;23;20039;-85
2023/07/12 03:27:10;;;;;;;1.95;0.82;;;;;;;;;;6065982;23;19999;-85
2023/07/12 03:29:35;;;;;;;2.92;0.88;;;;;;;;;;6065991;23;20034;-85
2023/07/12 03:32:00;;;;;;;4.95;0.75;;;;;;;;;;6067400;23;20078;-85
2023/07/12 03:34:25;;;;;;;1.60;0.80;;;;;;;;;;6066113;23;20003;-84
2023/07/12 03:36:51;;;;;;;3.58;1.15;;;;;;;;;;6090058;23;20502;-85
2023/07/12 03:39:16;;;;;;;5.68;1.33;;;;;;;;;;6066030;23;20011;-85
2023/07/12 03:41:41;;;;;;;5.25;1.00;;;;;;;;;;6067105;23;20376;-85
2023/07/12 03:44:07;;;;;;;2.35;1.50;;;;;;;;;;6041817;23;20451;-85
2023/07/12 03:46:32;;;;;;;3.67;1.30;;;;;;;;;;6065541;23;20025;-84
2023/07/12 03:48:57;;;;;;;3.85;1.40;;;;;;;;;;6065226;23;20089;-84
2023/07/12 03:51:25;;;;;;;2.08;1.08;;;;;;;;;;6041915;23;20014;-85
2023/07/12 03:53:52;;;;;;;1.92;1.50;;;;;;;;;;6042751;23;20034;-85
2023/07/12 03:56:17;;;;;;;2.53;1.10;;;;;;;;;;6043831;23;20013;-85
2023/07/12 03:58:43;;;;;;;3.40;1.35;;;;;;;;;;6067217;23;20003;-85
2023/07/12 04:01:09;;;;;;;4.20;1.42;;;;;;;;;;6044853;23;20010;-84
2023/07/12 04:03:35;;;;;;;6.57;1.40;;;;;;;;;;6043974;23;20005;-85
2023/07/12 04:06:03;;;;;;;2.97;1.15;;;;;;;;;;6044063;23;20003;-85
2023/07/12 04:08:28;;;;;;;3.97;1.50;;;;;;;;;;6043720;23;20393;-85
2023/07/12 04:10:54;;;;;;;6.00;1.88;;;;;;;;;;6046371;23;20368;-85
2023/07/12 04:13:20;;;;;;;6.25;1.88;;;;;;;;;;6071068;23;20009;-85
2023/07/12 04:15:46;;;;;;;6.25;1.55;;;;;;;;;;6045683;23;20010;-85
2023/07/12 04:18:11;;;;;;;10.18;2.00;;;;;;;;;;6045695;23;20009;-84
2023/07/12 04:20:38;;;;;;;5.10;1.85;;;;;;;;;;6073223;23;20034;-85
2023/07/12 04:23:03;;;;;;;5.78;1.35;;;;;;;;;;6072506;23;20052;-85
2023/07/12 04:25:28;;;;;;;7.82;1.95;;;;;;;;;;6047421;23;19999;-85
2023/07/12 04:27:54;;;;;;;8.70;2.22;;;;;;;;;;6073151;23;20031;-85
2023/07/12 04:30:19;;;;;;;3.92;1.70;;;;;;;;;;6070787;23;20383;-85
2023/07/12 04:32:47;;;;;;;4.10;1.67;;;;;;;;;;6043349;23;20014;-85
2023/07/12 04:35:12;;;;;;;7.65;1.90;;;;;;;;;;6043638;23;20316;-85
2023/07/12 04:37:40;;;;;;;4.22;1.50;;;;;;;;;;6069590;23;20097;-85
2023/07/12 04:40:09;;;;;;;4.55;1.80;;;;;;;;;;6067563;23;20377;-85
2023/07/12 04:42:34;;;;;;;4.03;1.90;;;;;;;;;;6068743;23;20113;-86
2023/07/12 04:44:59;;;;;;;10.43;2.25;;;;;;;;;;6068179;23;19995;-85
2023/07/12 04:47:24;;;;;;;6.82;1.90;;;;;;;;;;6068533;23;20056;-85
2023/07/12 04:49:50;;;;;;;7.05;2.00;;;;;;;;;;6043203;23;20030;-85
2023/07/12 04:52:16;;;;;;;6.07;2.30;;;;;;;;;;6068452;23;20010;-85
2023/07/12 04:54:45;;;;;;;6.70;2.33;;;;;;;;;;6066587;23;20014;-85
2023/07/12 04:57:11;;;;;;;4.32;1.70;;;;;;;;;;6042825;23;20087;-86
2023/07/12 04:59:36;;;;;;;3.97;1.80;;;;;;;;;;6042847;23;20142;-85
2023/07/12 05:02:01;;;;;;;7.95;2.28;;;;;;;;;;6043046;23;19999;-86
2023/07/12 05:04:27;;;;;;;4.68;1.95;;;;;;;;;;6067913;23;19995;-86
2023/07/12 05:06:52;;;;;;;3.33;1.88;;;;;;;;;;6042847;23;20030;-86
2023/07/12 05:09:23;;;;;;;5.95;1.95;;;;;;;;;;6042621;23;20415;-86
2023/07/12 05:11:49;;;;;;;6.22;1.92;;;;;;;;;;6042751;23;20002;-86
2023/07/12 05:14:17;;;;;;;5.38;2.05;;;;;;;;;;6042885;23;19995;-86
2023/07/12 05:16:42;;;;;;;5.90;2.13;;;;;;;;;;6042109;23;19999;-85
2023/07/12 05:19:08;;;;;;;6.65;2.47;;;;;;;;;;6042648;23;20078;-86
2023/07/12 05:21:33;;;;;;;4.95;2.35;;;;;;;;;;6066528;23;20003;-86
2023/07/12 05:23:58;;;;;;;5.57;2.03;;;;;;;;;;6066685;23;19999;-86
2023/07/12 05:26:23;;;;;;;6.40;2.17;;;;;;;;;;6042661;23;20010;-86
2023/07/12 05:28:51;;;;;;;5.93;2.13;;;;;;;;;;6067361;23;20007;-85
2023/07/12 05:31:16;;;;;;;6.90;1.95;;;;;;;;;;6071715;23;20025;-85
2023/07/12 05:33:46;;;;;;;8.32;2.30;;;;;;;;;;6042282;23;20003;-86
2023/07/12 05:36:11;;;;;;;8.10;2.20;;;;;;;;;;6043541;23;20367;-86
2023/07/12 05:38:37;;;;;;;6.45;2.53;;;;;;;;;;6043817;23;20003;-86
2023/07/12 05:41:02;;;;;;;6.18;2.85;;;;;;;;;;6072729;23;20308;-86
2023/07/12 05:43:28;;;;;;;8.77;3.30;;;;;;;;;;6047729;23;20078;-87
2023/07/12 05:46:00;;;;;;;7.53;2.08;;;;;;;;;;6075698;23;19995;-86
2023/07/12 05:48:25;;;;;;;7.60;3.15;;;;;;;;;;6049617;23;20412;-80
2023/07/12 05:50:54;;;;;;;5.38;2.30;;;;;;;;;;6048319;23;20017;-79
2023/07/12 05:53:20;;;;;;;5.68;2.42;;;;;;;;;;6051157;23;20489;-79
2023/07/12 05:55:46;;;;;;;8.77;3.55;;;;;;;;;;6048547;23;20307;-79
2023/07/12 05:58:12;;;;;;;6.75;2.40;;;;;;;;;;6049778;23;19998;-79
2023/07/12 06:00:38;;;;;;;5.80;2.58;;;;;;;;;;6044999;23;20368;-79
2023/07/12 06:03:05;;;;;;;8.15;1.90;;;;;;;;;;6042534;23;20003;-79
2023/07/12 06:05:31;;;;;;;13.43;2.55;;;;;;;;;;6068559;23;20490;-79
2023/07/12 06:07:57;;;;;;;10.30;2.22;;;;;;;;;;6054701;23;20608;-85
2023/07/12 06:10:22;;;;;;;7.82;2.78;;;;;;;;;;6043171;23;20011;-85
2023/07/12 06:12:47;;;;;;;9.70;2.78;;;;;;;;;;6068160;23;20387;-85
2023/07/12 06:15:13;;;;;;;9.93;2.75;;;;;;;;;;6043108;23;20483;-90
2023/07/12 06:17:38;;;;;;;6.68;1.98;;;;;;;;;;6068579;23;19995;-89
2023/07/12 06:20:03;;;;;;;10.60;2.50;;;;;;;;;;6043262;23;20018;-88
2023/07/12 06:22:29;;;;;;;6.90;2.25;;;;;;;;;;6043522;23;19994;-88
2023/07/12 06:24:54;;;;;;;8.80;2.28;;;;;;;;;;6043273;23;20086;-89
2023/07/12 06:27:19;;;;;;;7.88;2.13;;;;;;;;;;6068777;23;19999;-88
2023/07/12 06:29:47;;;;;;;8.27;2.72;;;;;;;;;;6068729;23;20010;-88
2023/07/12 06:32:15;;;;;;;7.13;2.03;;;;;;;;;;6043463;23;20007;-88
2023/07/12 06:34:40;;;;;;;9.98;2.53;;;;;;;;;;6043429;23;20003;-89
2023/07/12 06:37:08;;;;;;;7.22;2.15;;;;;;;;;;6043148;23;20028;-89
2023/07/12 06:39:34;;;;;;;3.20;1.63;;;;;;;;;;6043243;23;20078;-88
2023/07/12 06:42:00;;;;;;;4.97;1.85;;;;;;;;;;6055905;23;20010;-88
2023/07/12 06:44:25;;;;;;;6.55;2.20;;;;;;;;;;6068239;23;20272;-89
2023/07/12 06:46:51;;;;;;;7.07;2.10;;;;;;;;;;6068786;23;20357;-89
2023/07/12 06:49:16;;;;;;;5.38;2.00;;;;;;;;;;6067342;23;20018;-88
2023/07/12 06:51:46;;;;;;;5.38;1.90;;;;;;;;;;6091554;23;20055;-88
2023/07/12 06:54:11;;;;;;;6.40;2.42;;;;;;;;;;6093371;23;20293;-88
2023/07/12 06:56:36;;;;;;;4.82;2.38;;;;;;;;;;6067760;23;20054;-88
2023/07/12 06:59:02;;;;;;;10.02;2.05;;;;;;;;;;6066829;23;20006;-88
2023/07/12 07:01:27;;;;;;;9.05;1.98;;;;;;;;;;6067391;23;20006;-88
2023/07/12 07:03:53;;;;;;;5.63;2.30;;;;;;;;;;6073299;23;20003;-88
2023/07/12 07:06:19;;;;;;;6.95;2.42;;;;;;;;;;6067614;23;20009;-88
2023/07/12 07:08:44;;;;;;;10.18;2.22;;;;;;;;;;6068216;23;20062;-88
2023/07/12 07:11:10;;;;;;;5.55;2.30;;;;;;;;;;6068686;23;20097;-88
2023/07/12 07:13:35;;;;;;;10.32;2.35;;;;;;;;;;6071633;23;20013;-86
2023/07/12 07:16:00;;;;;;;8.80;2.30;;;;;;;;;;6069118;23;20404;-88
2023/07/12 07:18:29;;;;;;;8.65;1.90;;;;;;;;;;6071967;23;20010;-89
2023/07/12 07:20:54;;;;;;;4.72;2.08;;;;;;;;;;6074564;23;20013;-80
2023/07/12 07:23:20;;;;;;;7.97;2.78;;;;;;;;;;6073173;23;20062;-79
2023/07/12 07:25:45;;;;;;;8.00;2.20;;;;;;;;;;6069809;23;20074;-79
2023/07/12 07:28:14;;;;;;;5.28;1.77;;;;;;;;;;6068888;23;20015;-79
2023/07/12 07:30:43;;;;;;;11.68;2.42;;;;;;;;;;6102175;23;20481;-82
2023/07/12 07:33:09;;;;;;;14.25;2.60;;;;;;;;;;6081423;23;20009;-88
2023/07/12 07:35:35;;;;;;;8.23;2.17;;;;;;;;;;6073139;23;20011;-88
2023/07/12 07:38:00;;;;;;;6.40;2.38;;;;;;;;;;6071083;23;20033;-87
2023/07/12 07:40:29;;;;;;;8.27;2.70;;;;;;;;;;6098256;23;19998;-88
2023/07/12 07:42:56;;;;;;;7.60;1.92;;;;;;;;;;6069970;23;20014;-87
2023/07/12 07:45:22;;;;;;;7.30;2.03;;;;;;;;;;6069219;23;20002;-87
2023/07/12 07:47:47;;;;;;;4.82;2.05;;;;;;;;;;6070213;23;20495;-87
2023/07/12 07:50:12;;;;;;;6.93;1.75;;;;;;;;;;6095063;23;20007;-88
2023/07/12 07:52:38;;;;;;;6.72;2.15;;;;;;;;;;6071213;23;20002;-88
2023/07/12 07:55:05;;;;;;;8.88;2.22;;;;;;;;;;6097904;23;20022;-87
2023/07/12 07:57:30;;;;;;;5.90;2.20;;;;;;;;;;6073447;23;20039;-88
2023/07/12 07:59:56;;;;;;;7.15;2.03;;;;;;;;;;6074267;23;20039;-88
2023/07/12 08:02:22;;;;;;;10.45;2.08;;;;;;;;;;6074132;23;20034;-88
2023/07/12 08:04:52;;;;;;;6.22;1.65;;;;;;;;;;6073103;23;20002;-88
2023/07/12 08:07:17;;;;;;;7.78;1.90;;;;;;;;;;6073082;23;20078;-88
2023/07/12 08:09:42;;;;;;;7.53;2.25;;;;;;;;;;6097112;23;20002;-89
2023/07/12 08:12:08;;;;;;;15.60;2.13;;;;;;;;;;6072085;23;20058;-88
2023/07/12 08:14:35;;;;;;;6.57;1.80;;;;;;;;;;6074229;23;20005;-87
2023/07/12 08:17:01;;;;;;;9.00;1.83;;;;;;;;;;6075259;23;19998;-88
2023/07/12 08:19:26;;;;;;;4.50;2.08;;;;;;;;;;6070612;23;20003;-89
2023/07/12 08:21:51;;;;;;;5.75;2.10;;;;;;;;;;6071877;23;19995;-88
2023/07/12 08:24:16;;;;;;;9.80;1.90;;;;;;;;;;6095251;23;20034;-88
2023/07/12 08:26:42;;;;;;;11.27;2.15;;;;;;;;;;6071056;23;19995;-88
2023/07/12 08:29:07;;;;;;;5.43;2.00;;;;;;;;;;6069907;23;20018;-87
2023/07/12 08:31:33;;;;;;;6.70;2.00;;;;;;;;;;6074702;23;20420;-88
2023/07/12 08:33:58;;;;;;;11.43;2.03;;;;;;;;;;6077254;23;20007;-87
2023/07/12 08:36:23;;;;;;;5.88;1.63;;;;;;;;;;6076121;23;20010;-87
2023/07/12 08:38:49;;;;;;;9.05;2.47;;;;;;;;;;6078750;23;20007;-88
2023/07/12 08:41:15;;;;;;;4.55;1.80;;;;;;;;;;6077460;23;20017;-87
2023/07/12 08:43:41;;;;;;;7.78;1.55;;;;;;;;;;6077587;23;20002;-88
2023/07/12 08:46:28;;;;;;;6.20;2.22;;;;;;;;;;6075858;23;19998;-87
2023/07/12 08:48:57;;;;;;;7.72;1.50;;;;;;;;;;6075846;23;20060;-88
2023/07/12 08:51:27;;;;;;;5.93;1.52;;;;;;;;;;6074106;23;20502;-87
2023/07/12 08:53:52;;;;;;;3.63;1.77;;;;;;;;;;6076332;23;20014;-87
2023/07/12 08:56:19;;;;;;;9.43;1.98;;;;;;;;;;6078582;23;20002;-86
2023/07/12 08:58:54;;;;;;;9.05;1.60;;;;;;;;;;6078651;23;20003;-86
2023/07/12 09:01:29;;;;;;;11.00;1.98;;;;;;;;;;6101910;23;20011;-86
2023/07/12 09:03:54;;;;;;;9.30;1.75;;;;;;;;;;6079492;23;20007;-86
2023/07/12 09:06:20;;;;;;;8.68;1.92;;;;;;;;;;6077187;23;20003;-85
2023/07/12 09:08:49;;;;;;;3.50;1.42;;;;;;;;;;6072677;23;20013;-87
2023/07/12 09:11:34;;;;;;;8.95;2.13;;;;;;;;;;6077024;23;20082;-87
2023/07/12 09:14:02;;;;;;;7.40;1.70;;;;;;;;;;6073903;23;20441;-87
2023/07/12 09:16:32;;;;;;;6.25;1.65;;;;;;;;;;6070348;23;20478;-88
2023/07/12 09:19:00;;;;;;;6.07;1.90;;;;;;;;;;6068440;23;20411;-89
2023/07/12 09:21:28;;;;;;;6.07;2.05;;;;;;;;;;6073541;23;20066;-87
2023/07/12 09:23:54;;;;;;;7.18;1.42;;;;;;;;;;6072214;23;20157;-88
2023/07/12 09:26:22;;;;;;;4.68;1.73;;;;;;;;;;6078129;23;20027;-89
2023/07/12 09:28:50;;;;;;;4.35;1.58;;;;;;;;;;6070299;23;20086;-90
2023/07/12 09:31:23;;;;;;;3.97;1.63;;;;;;;;;;6069082;23;20081;-91
2023/07/12 09:33:59;;;;;;;3.22;1.15;;;;;;;;;;6071069;23;20003;-90
2023/07/12 09:36:24;;;;;;;5.63;1.75;;;;;;;;;;6070316;23;20009;-91
2023/07/12 09:38:50;;;;;;;5.40;1.77;;;;;;;;;;6069555;23;20032;-91
2023/07/12 09:41:19;;;;;;;6.95;1.77;;;;;;;;;;6069003;23;20465;-90
2023/07/12 09:43:52;;;;;;;5.40;1.38;;;;;;;;;;6069709;23;20007;-91
2023/07/12 09:46:17;;;;;;;3.50;1.42;;;;;;;;;;6070004;23;19998;-90
2023/07/12 09:48:43;;;;;;;8.40;1.85;;;;;;;;;;6070748;23;20027;-90
2023/07/12 09:51:11;;;;;;;7.10;1.67;;;;;;;;;;6069646;23;20002;-90
2023/07/12 09:53:36;;;;;;;2.65;1.00;;;;;;;;;;6067767;23;20299;-90
2023/07/12 09:56:07;;;;;;;5.47;1.40;;;;;;;;;;6066733;23;20045;-90
2023/07/12 09:58:39;;;;;;;5.43;1.35;;;;;;;;;;6066800;23;20007;-89
2023/07/12 10:01:31;;;;;;;2.53;0.68;;;;;;;;;;6068900;23;20027;-90
2023/07/12 10:04:03;;;;;;;5.68;1.40;;;;;;;;;;6062331;23;20034;-89
2023/07/12 10:06:31;;;;;;;2.55;0.98;;;;;;;;;;6067382;23;19999;-89
2023/07/12 10:09:12;;;;;;;4.25;1.55;;;;;;;;;;6067645;23;20085;-89
2023/07/12 10:11:56;;;;;;;8.75;2.00;;;;;;;;;;6068939;23;20006;-89
2023/07/12 10:14:26;;;;;;;3.35;1.17;;;;;;;;;;6067434;23;20002;-89
2023/07/12 10:16:53;;;;;;;5.72;1.70;;;;;;;;;;6066798;23;20006;-90
2023/07/12 10:19:31;;;;;;;5.78;1.42;;;;;;;;;;6068323;23;20003;-89
2023/07/12 10:21:59;;;;;;;3.00;1.27;;;;;;;;;;6067177;23;19999;-90
2023/07/12 10:24:30;;;;;;;9.23;1.73;;;;;;;;;;6066810;23;20090;-89
2023/07/12 10:26:56;;;;;;;6.50;1.63;;;;;;;;;;6068624;23;20014;-89
2023/07/12 10:29:28;;;;;;;3.70;1.30;;;;;;;;;;6067030;23;19995;-89
2023/07/12 10:32:00;;;;;;;3.55;0.90;;;;;;;;;;6068572;23;20324;-90
2023/07/12 10:34:25;;;;;;;5.57;1.27;;;;;;;;;;6066814;23;20026;-89
2023/07/12 10:36:55;;;;;;;1.58;0.95;;;;;;;;;;6066880;23;20003;-89
2023/07/12 10:39:21;;;;;;;6.90;1.40;;;;;;;;;;6066782;23;20099;-89
2023/07/12 10:41:54;;;;;;;9.65;1.38;;;;;;;;;;6068280;23;20074;-90
2023/07/12 10:44:20;;;;;;;5.22;1.40;;;;;;;;;;6042957;23;20075;-89
2023/07/12 10:46:49;;;;;;;4.05;1.42;;;;;;;;;;6066692;23;20013;-89
2023/07/12 10:49:16;;;;;;;5.85;1.63;;;;;;;;;;6042581;23;20025;-89
2023/07/12 10:51:42;;;;;;;4.80;1.45;;;;;;;;;;6041287;23;20064;-90
2023/07/12 10:54:26;;;;;;;6.95;1.58;;;;;;;;;;6068307;23;20053;-90
2023/07/12 10:56:53;;;;;;;3.30;0.70;;;;;;;;;;6042461;23;20002;-89
2023/07/12 10:59:30;;;;;;;1.23;0.60;;;;;;;;;;6042943;23;20285;-89
2023/07/12 11:01:55;;;;;;;7.10;1.20;;;;;;;;;;6043471;23;20033;-90
2023/07/12 11:04:25;;;;;;;7.18;1.55;;;;;;;;;;6068764;23;20082;-90
2023/07/12 11:07:10;;;;;;;3.65;1.00;;;;;;;;;;6044539;23;20332;-90
2023/07/12 11:09:50;;;;;;;2.85;0.98;;;;;;;;;;6045216;23;20025;-89
2023/07/12 11:12:18;;;;;;;5.68;1.20;;;;;;;;;;6069582;23;20378;-89
2023/07/12 11:14:45;;;;;;;3.22;0.80;;;;;;;;;;6069541;23;20499;-89
2023/07/12 11:17:10;;;;;;;4.30;1.30;;;;;;;;;;6043873;23;19994;-89
2023/07/12 11:19:42;;;;;;;8.52;1.20;;;;;;;;;;6069597;23;20003;-88
2023/07/12 11:22:07;;;;;;;;;;;;;;;;;;6070455;23;19998;-89
2023/07/12 11:24:41;;;;;;;6.88;1.38;;;;;;;;;;6068748;23;19985;-89
2023/07/12 11:27:23;;;;;;;4.93;1.63;;;;;;;;;;6044133;23;20082;-89
2023/07/12 11:29:53;;;;;;;4.35;1.15;;;;;;;;;;6043900;23;20122;-89
2023/07/12 11:32:26;;;;;;;7.82;1.20;;;;;;;;;;6044661;23;19999;-89
2023/07/12 11:34:58;;;;;;;8.07;2.90;;;;;;;;;;6068366;23;20086;-89
2023/07/12 11:37:34;;;;;;;7.22;0.90;;;;;;;;;;6044545;23;20331;-89
2023/07/12 11:39:59;;;;;;;3.08;1.00;;;;;;;;;;6069930;23;19999;-88
2023/07/12 11:42:28;;;;;;;2.88;1.00;;;;;;;;;;6086719;23;20447;-88
2023/07/12 11:45:04;;;;;;;1.98;0.90;;;;;;;;;;6069915;23;20006;-89
2023/07/12 11:47:30;;;;;;;3.22;0.85;;;;;;;;;;6068491;23;20007;-89
2023/07/12 11:49:57;;;;;;;4.15;0.90;;;;;;;;;;6069371;23;20003;-87
2023/07/12 11:52:23;;;;;;;9.35;1.00;;;;;;;;;;6069511;23;20257;-87
2023/07/12 11:54:49;;;;;;;1.13;0.30;;;;;;;;;;6068077;23;20014;-87
2023/07/12 11:57:15;;;;;;;1.27;0.25;;;;;;;;;;6092808;23;20014;-88
2023/07/12 11:59:42;;;;;;;1.70;0.57;;;;;;;;;;6093700;23;20015;-88
2023/07/12 12:02:13;;;;;;;10.25;0.85;;;;;;;;;;6067848;23;20006;-87
2023/07/12 12:04:41;;;;;;;4.05;1.20;;;;;;;;;;6069039;23;20062;-87
2023/07/12 12:07:18;;;;;;;1.60;0.80;;;;;;;;;;6069142;23;20024;-87
2023/07/12 12:09:44;;;;;;;1.92;0.82;;;;;;;;;;6092127;23;19999;-87
2023/07/12 12:12:15;;;;;;;3.85;1.08;;;;;;;;;;6067651;23;20026;-87
2023/07/12 12:14:41;;;;;;;1.60;0.60;;;;;;;;;;6069082;23;20361;-87
2023/07/12 12:17:11;;;;;;;1.98;1.05;;;;;;;;;;6067638;23;20003;-88
2023/07/12 12:19:37;;;;;;;2.08;0.90;;;;;;;;;;6067513;23;20081;-86
2023/07/12 12:22:04;;;;;;;1.95;0.85;;;;;;;;;;6067512;23;20052;-86
2023/07/12 12:24:41;;;;;;;4.03;0.80;;;;;;;;;;6068264;23;20007;-86
2023/07/12 12:27:17;;;;;;;2.70;0.85;;;;;;;;;;6071164;23;20006;-86
2023/07/12 12:29:42;;;;;;;2.70;0.60;;;;;;;;;;6071039;23;20315;-85
2023/07/12 12:32:12;;;;;;;3.58;0.98;;;;;;;;;;6071809;23;20382;-86
2023/07/12 12:34:41;;;;;;;5.40;0.80;;;;;;;;;;6072681;23;19999;-86
2023/07/12 12:37:06;;;;;;;1.35;0.93;;;;;;;;;;6071339;23;20013;-86
2023/07/12 12:39:31;;;;;;;6.05;0.73;;;;;;;;;;6070327;23;20078;-86
2023/07/12 12:42:17;;;;;;;3.67;0.57;;;;;;;;;;6094160;23;20006;-86
2023/07/12 12:44:42;;;;;;;1.67;0.55;;;;;;;;;;6068726;23;20410;-85
2023/07/12 12:47:16;;;;;;;2.92;0.68;;;;;;;;;;6069062;23;19991;-84
2023/07/12 12:49:41;;;;;;;3.22;0.93;;;;;;;;;;6068858;23;20002;-85
2023/07/12 12:52:20;;;;;;;2.08;1.15;;;;;;;;;;6069013;23;19995;-84
2023/07/12 12:54:45;;;;;;;2.55;0.90;;;;;;;;;;6067403;23;20033;-84
2023/07/12 12:57:12;;;;;;;7.03;1.02;;;;;;;;;;6090455;23;20419;-85
2023/07/12 12:59:37;;;;;;;4.38;0.80;;;;;;;;;;6066933;23;20078;-84
2023/07/12 13:02:11;;;;;;;3.28;1.45;;;;;;;;;;6068685;23;20001;-84
2023/07/12 13:04:41;;;;;;;4.43;0.95;;;;;;;;;;6068771;23;20002;-84
2023/07/12 13:07:24;;;;;;;5.32;0.93;;;;;;;;;;6068436;23;20062;-84
2023/07/12 13:09:53;;;;;;;2.30;0.60;;;;;;;;;;6066706;23;21033;-84
2023/07/12 13:12:19;;;;;;;3.88;0.60;;;;;;;;;;6067236;23;20042;-84
2023/07/12 13:14:51;;;;;;;0.98;0.47;;;;;;;;;;6067468;23;20343;-84
2023/07/12 13:17:18;;;;;;;6.95;1.48;;;;;;;;;;6068540;23;19998;-83
2023/07/12 13:19:44;;;;;;;7.32;0.90;;;;;;;;;;6067027;23;20030;-83
2023/07/12 13:22:15;;;;;;;3.45;0.73;;;;;;;;;;6067111;23;20415;-84
2023/07/12 13:24:41;;;;;;;3.60;0.70;;;;;;;;;;6067367;23;19995;-83
2023/07/12 13:27:16;;;;;;;1.88;0.65;;;;;;;;;;6067125;23;20210;-84
2023/07/12 13:29:41;;;;;;;1.50;0.68;;;;;;;;;;6068934;23;20018;-84
2023/07/12 13:32:11;;;;;;;5.10;0.70;;;;;;;;;;6072000;23;20002;-84
2023/07/12 13:34:36;;;;;;;3.95;0.57;;;;;;;;;;6066722;23;20066;-84
2023/07/12 13:37:02;;;;;;;5.00;1.50;;;;;;;;;;6067152;23;20078;-84
2023/07/12 13:39:30;;;;;;;4.55;0.60;;;;;;;;;;6069309;23;20003;-84
2023/07/12 13:41:56;;;;;;;1.02;0.70;;;;;;;;;;6068512;23;20007;-84
2023/07/12 13:44:21;;;;;;;2.10;0.50;;;;;;;;;;6043164;23;20003;-84
2023/07/12 13:46:49;;;;;;;4.53;0.80;;;;;;;;;;6068197;23;20062;-84
2023/07/12 13:49:16;;;;;;;4.70;0.82;;;;;;;;;;6042923;23;20424;-84
2023/07/12 13:51:42;;;;;;;4.07;0.55;;;;;;;;;;6043285;23;20007;-85
2023/07/12 13:54:08;;;;;;;1.80;0.50;;;;;;;;;;6042751;23;20017;-85
2023/07/12 13:56:40;;;;;;;2.42;0.60;;;;;;;;;;6068583;23;20003;-84
2023/07/12 13:59:06;;;;;;;1.27;0.52;;;;;;;;;;6042796;23;20518;-85
2023/07/12 14:01:32;;;;;;;2.95;0.50;;;;;;;;;;6042748;23;20026;-85
2023/07/12 14:03:58;;;;;;;2.40;0.60;;;;;;;;;;6042633;23;20078;-84
2023/07/12 14:06:24;;;;;;;2.08;0.50;;;;;;;;;;6043098;23;20094;-84
2023/07/12 14:08:49;;;;;;;3.33;0.75;;;;;;;;;;6042916;23;20007;-84
2023/07/12 14:11:28;;;;;;;2.47;0.52;;;;;;;;;;6042969;23;20095;-84
2023/07/12 14:13:56;;;;;;;2.38;0.50;;;;;;;;;;6042650;23;20034;-84
2023/07/12 14:16:23;;;;;;;1.65;0.47;;;;;;;;;;6042440;23;20007;-84
2023/07/12 14:18:48;;;;;;;4.07;0.47;;;;;;;;;;6042723;23;20006;-83
2023/07/12 14:21:14;;;;;;;4.95;0.70;;;;;;;;;;6067629;23;20070;-84
2023/07/12 14:23:40;;;;;;;3.63;0.68;;;;;;;;;;6066366;23;19999;-84
2023/07/12 14:26:05;;;;;;;2.33;0.52;;;;;;;;;;6043410;23;20023;-85
2023/07/12 14:28:31;;;;;;;3.22;0.50;;;;;;;;;;6043338;23;20002;-84
2023/07/12 14:30:56;;;;;;;2.80;0.80;;;;;;;;;;6067453;23;20007;-85
2023/07/12 14:33:29;;;;;;;2.88;0.60;;;;;;;;;;6043409;23;20018;-83
2023/07/12 14:35:54;;;;;;;1.23;0.50;;;;;;;;;;6067523;23;20002;-86
2023/07/12 14:38:19;;;;;;;2.65;0.50;;;;;;;;;;6068577;23;19999;-85
2023/07/12 14:40:44;;;;;;;3.55;0.50;;;;;;;;;;6067163;23;20003;-85
2023/07/12 14:43:13;;;;;;;2.72;0.80;;;;;;;;;;6043143;23;20006;-85
2023/07/12 14:45:38;;;;;;;6.63;0.88;;;;;;;;;;6044331;23;20418;-85